sensor_id;sensor_type;location;lat;lon;timestamp;P1;durP1;ratioP1;P2;durP2;ratioP2
10045;SDS011;5063;50.878;4.742;2023-05-08T00:01:10;19.83;;;15.13;;
10045;SDS011;5063;50.878;4.742;2023-05-08T00:03:36;24.33;;;16.80;;
10045;SDS011;5063;50.878;4.742;2023-05-08T00:06:05;20.77;;;16.30;;
10045;SDS011;5063;50.878;4.742;2023-05-08T00:08:31;20.87;;;16.97;;
10045;SDS011;5063;50.878;4.742;2023-05-08T00:10:57;19.33;;;16.87;;
10045;SDS011;5063;50.878;4.742;2023-05-08T00:13:22;20.57;;;16.03;;
10045;SDS011;5063;50.878;4.742;2023-05-08T00:15:48;22.87;;;17.93;;
10045;SDS011;5063;50.878;4.742;2023-05-08T00:18:14;23.23;;;18.47;;
10045;SDS011;5063;50.878;4.742;2023-05-08T00:20:40;20.47;;;17.10;;
10045;SDS011;5063;50.878;4.742;2023-05-08T00:23:06;20.70;;;17.80;;
10045;SDS011;5063;50.878;4.742;2023-05-08T00:25:32;21.63;;;16.70;;
10045;SDS011;5063;50.878;4.742;2023-05-08T00:27:58;17.23;;;14.60;;
10045;SDS011;5063;50.878;4.742;2023-05-08T00:30:25;20.53;;;16.23;;
10045;SDS011;5063;50.878;4.742;2023-05-08T00:32:51;18.00;;;15.60;;
10045;SDS011;5063;50.878;4.742;2023-05-08T00:35:17;17.87;;;15.93;;
10045;SDS011;5063;50.878;4.742;2023-05-08T00:37:43;16.70;;;14.90;;
10045;SDS011;5063;50.878;4.742;2023-05-08T00:40:09;18.40;;;15.60;;
10045;SDS011;5063;50.878;4.742;2023-05-08T00:42:36;20.93;;;16.27;;
10045;SDS011;5063;50.878;4.742;2023-05-08T00:45:02;17.90;;;14.70;;
10045;SDS011;5063;50.878;4.742;2023-05-08T00:47:29;18.03;;;15.27;;
10045;SDS011;5063;50.878;4.742;2023-05-08T00:49:55;22.63;;;17.30;;
10045;SDS011;5063;50.878;4.742;2023-05-08T00:52:22;19.67;;;17.43;;
10045;SDS011;5063;50.878;4.742;2023-05-08T00:54:49;23.40;;;18.00;;
10045;SDS011;5063;50.878;4.742;2023-05-08T00:57:15;23.30;;;20.03;;
10045;SDS011;5063;50.878;4.742;2023-05-08T00:59:42;20.47;;;17.97;;
10045;SDS011;5063;50.878;4.742;2023-05-08T01:02:11;24.17;;;18.63;;
10045;SDS011;5063;50.878;4.742;2023-05-08T01:04:37;20.83;;;17.23;;
10045;SDS011;5063;50.878;4.742;2023-05-08T01:07:04;21.90;;;17.50;;
10045;SDS011;5063;50.878;4.742;2023-05-08T01:09:30;20.63;;;17.07;;
10045;SDS011;5063;50.878;4.742;2023-05-08T01:15:05;17.77;;;14.50;;
10045;SDS011;5063;50.878;4.742;2023-05-08T01:25:31;19.67;;;16.60;;
10045;SDS011;5063;50.878;4.742;2023-05-08T01:28:29;16.67;;;14.23;;
10045;SDS011;5063;50.878;4.742;2023-05-08T01:37:01;17.63;;;13.83;;
10045;SDS011;5063;50.878;4.742;2023-05-08T01:42:17;17.07;;;14.90;;
10045;SDS011;5063;50.878;4.742;2023-05-08T01:45:06;15.90;;;14.20;;
10045;SDS011;5063;50.878;4.742;2023-05-08T01:47:40;16.40;;;14.20;;
10045;SDS011;5063;50.878;4.742;2023-05-08T01:50:21;16.90;;;14.83;;
10045;SDS011;5063;50.878;4.742;2023-05-08T01:52:52;18.47;;;15.13;;
10045;SDS011;5063;50.878;4.742;2023-05-08T01:55:25;23.60;;;15.37;;
10045;SDS011;5063;50.878;4.742;2023-05-08T01:57:54;22.63;;;15.10;;
10045;SDS011;5063;50.878;4.742;2023-05-08T02:00:22;20.50;;;16.23;;
10045;SDS011;5063;50.878;4.742;2023-05-08T02:02:50;22.00;;;17.97;;
10045;SDS011;5063;50.878;4.742;2023-05-08T02:05:18;24.20;;;17.83;;
10045;SDS011;5063;50.878;4.742;2023-05-08T02:07:46;22.50;;;16.27;;
10045;SDS011;5063;50.878;4.742;2023-05-08T02:10:14;16.60;;;14.80;;
10045;SDS011;5063;50.878;4.742;2023-05-08T02:12:42;16.10;;;14.33;;
10045;SDS011;5063;50.878;4.742;2023-05-08T02:15:09;15.57;;;13.90;;
10045;SDS011;5063;50.878;4.742;2023-05-08T02:17:37;18.17;;;14.40;;
10045;SDS011;5063;50.878;4.742;2023-05-08T02:20:05;15.63;;;13.17;;
10045;SDS011;5063;50.878;4.742;2023-05-08T02:22:32;14.60;;;12.77;;
10045;SDS011;5063;50.878;4.742;2023-05-08T02:24:59;16.33;;;14.10;;
10045;SDS011;5063;50.878;4.742;2023-05-08T02:27:26;17.07;;;13.83;;
10045;SDS011;5063;50.878;4.742;2023-05-08T02:29:53;18.10;;;14.90;;
10045;SDS011;5063;50.878;4.742;2023-05-08T02:32:20;20.50;;;16.13;;
10045;SDS011;5063;50.878;4.742;2023-05-08T02:34:49;26.83;;;19.50;;
10045;SDS011;5063;50.878;4.742;2023-05-08T02:37:17;27.20;;;19.93;;
10045;SDS011;5063;50.878;4.742;2023-05-08T02:39:46;34.57;;;24.00;;
10045;SDS011;5063;50.878;4.742;2023-05-08T02:42:13;30.67;;;23.20;;
10045;SDS011;5063;50.878;4.742;2023-05-08T02:44:40;33.60;;;24.00;;
10045;SDS011;5063;50.878;4.742;2023-05-08T02:47:11;32.37;;;24.00;;
10045;SDS011;5063;50.878;4.742;2023-05-08T02:49:46;36.03;;;25.87;;
10045;SDS011;5063;50.878;4.742;2023-05-08T02:52:37;33.10;;;24.50;;
10045;SDS011;5063;50.878;4.742;2023-05-08T02:57:52;43.33;;;28.63;;
10045;SDS011;5063;50.878;4.742;2023-05-08T03:00:34;46.53;;;31.03;;
10045;SDS011;5063;50.878;4.742;2023-05-08T03:05:55;62.93;;;39.30;;
10045;SDS011;5063;50.878;4.742;2023-05-08T03:08:31;54.90;;;40.03;;
10045;SDS011;5063;50.878;4.742;2023-05-08T03:11:03;56.03;;;38.60;;
10045;SDS011;5063;50.878;4.742;2023-05-08T03:13:40;58.20;;;40.93;;
10045;SDS011;5063;50.878;4.742;2023-05-08T03:16:08;60.57;;;41.33;;
10045;SDS011;5063;50.878;4.742;2023-05-08T03:18:45;63.30;;;40.53;;
10045;SDS011;5063;50.878;4.742;2023-05-08T03:21:17;62.37;;;41.13;;
10045;SDS011;5063;50.878;4.742;2023-05-08T03:23:44;63.17;;;42.30;;
10045;SDS011;5063;50.878;4.742;2023-05-08T03:26:12;65.80;;;43.90;;
10045;SDS011;5063;50.878;4.742;2023-05-08T03:28:44;65.87;;;42.80;;
10045;SDS011;5063;50.878;4.742;2023-05-08T03:31:19;67.43;;;43.37;;
10045;SDS011;5063;50.878;4.742;2023-05-08T03:33:46;67.77;;;44.50;;
10045;SDS011;5063;50.878;4.742;2023-05-08T03:36:14;65.80;;;44.33;;
10045;SDS011;5063;50.878;4.742;2023-05-08T03:38:40;64.10;;;41.93;;
10045;SDS011;5063;50.878;4.742;2023-05-08T03:41:07;68.33;;;44.43;;
10045;SDS011;5063;50.878;4.742;2023-05-08T03:43:32;70.73;;;46.40;;
10045;SDS011;5063;50.878;4.742;2023-05-08T03:46:01;71.73;;;45.73;;
10045;SDS011;5063;50.878;4.742;2023-05-08T03:48:29;74.87;;;46.50;;
10045;SDS011;5063;50.878;4.742;2023-05-08T03:51:00;70.40;;;44.40;;
10045;SDS011;5063;50.878;4.742;2023-05-08T03:53:30;74.30;;;47.80;;
10045;SDS011;5063;50.878;4.742;2023-05-08T03:55:57;68.10;;;45.73;;
10045;SDS011;5063;50.878;4.742;2023-05-08T04:06:29;71.23;;;46.17;;
10045;SDS011;5063;50.878;4.742;2023-05-08T04:09:12;72.13;;;43.53;;
10045;SDS011;5063;50.878;4.742;2023-05-08T04:12:02;75.23;;;46.80;;
10045;SDS011;5063;50.878;4.742;2023-05-08T04:14:30;68.00;;;45.40;;
10045;SDS011;5063;50.878;4.742;2023-05-08T04:17:02;74.33;;;47.03;;
10045;SDS011;5063;50.878;4.742;2023-05-08T04:19:32;74.77;;;46.87;;
10045;SDS011;5063;50.878;4.742;2023-05-08T04:22:04;76.77;;;47.10;;
10045;SDS011;5063;50.878;4.742;2023-05-08T04:24:32;72.13;;;46.87;;
10045;SDS011;5063;50.878;4.742;2023-05-08T04:27:01;86.77;;;49.60;;
10045;SDS011;5063;50.878;4.742;2023-05-08T04:29:28;79.37;;;46.63;;
10045;SDS011;5063;50.878;4.742;2023-05-08T04:31:55;84.70;;;50.97;;
10045;SDS011;5063;50.878;4.742;2023-05-08T04:34:21;83.03;;;48.57;;
10045;SDS011;5063;50.878;4.742;2023-05-08T04:36:47;82.27;;;50.63;;
10045;SDS011;5063;50.878;4.742;2023-05-08T04:39:13;82.10;;;50.50;;
10045;SDS011;5063;50.878;4.742;2023-05-08T04:41:39;87.33;;;48.93;;
10045;SDS011;5063;50.878;4.742;2023-05-08T04:44:05;82.23;;;47.90;;
10045;SDS011;5063;50.878;4.742;2023-05-08T04:46:31;80.73;;;45.77;;
10045;SDS011;5063;50.878;4.742;2023-05-08T04:48:56;82.23;;;46.90;;
10045;SDS011;5063;50.878;4.742;2023-05-08T04:51:22;79.97;;;46.10;;
10045;SDS011;5063;50.878;4.742;2023-05-08T04:53:48;73.27;;;43.37;;
10045;SDS011;5063;50.878;4.742;2023-05-08T04:56:14;80.87;;;46.30;;
10045;SDS011;5063;50.878;4.742;2023-05-08T04:58:39;92.80;;;48.07;;
10045;SDS011;5063;50.878;4.742;2023-05-08T05:01:05;83.43;;;45.60;;
10045;SDS011;5063;50.878;4.742;2023-05-08T05:03:31;98.67;;;47.73;;
10045;SDS011;5063;50.878;4.742;2023-05-08T05:05:57;96.37;;;50.47;;
10045;SDS011;5063;50.878;4.742;2023-05-08T05:08:23;89.80;;;48.53;;
10045;SDS011;5063;50.878;4.742;2023-05-08T05:10:49;84.83;;;45.63;;
10045;SDS011;5063;50.878;4.742;2023-05-08T05:13:15;95.00;;;48.30;;
10045;SDS011;5063;50.878;4.742;2023-05-08T05:15:41;89.27;;;47.70;;
10045;SDS011;5063;50.878;4.742;2023-05-08T05:18:07;97.60;;;48.10;;
10045;SDS011;5063;50.878;4.742;2023-05-08T05:20:33;104.67;;;50.73;;
10045;SDS011;5063;50.878;4.742;2023-05-08T05:22:59;91.83;;;48.57;;
10045;SDS011;5063;50.878;4.742;2023-05-08T05:25:24;92.83;;;49.03;;
10045;SDS011;5063;50.878;4.742;2023-05-08T05:27:50;100.40;;;49.63;;
10045;SDS011;5063;50.878;4.742;2023-05-08T05:30:16;105.50;;;51.87;;
10045;SDS011;5063;50.878;4.742;2023-05-08T05:32:42;101.30;;;50.47;;
10045;SDS011;5063;50.878;4.742;2023-05-08T05:35:08;108.57;;;47.77;;
10045;SDS011;5063;50.878;4.742;2023-05-08T05:37:34;109.50;;;52.40;;
10045;SDS011;5063;50.878;4.742;2023-05-08T05:40:01;98.33;;;48.27;;
10045;SDS011;5063;50.878;4.742;2023-05-08T05:42:27;101.47;;;50.70;;
10045;SDS011;5063;50.878;4.742;2023-05-08T05:44:52;108.10;;;52.33;;
10045;SDS011;5063;50.878;4.742;2023-05-08T05:47:18;104.33;;;51.17;;
10045;SDS011;5063;50.878;4.742;2023-05-08T05:49:44;97.20;;;48.03;;
10045;SDS011;5063;50.878;4.742;2023-05-08T05:52:11;110.73;;;50.70;;
10045;SDS011;5063;50.878;4.742;2023-05-08T05:54:37;99.63;;;50.07;;
10045;SDS011;5063;50.878;4.742;2023-05-08T05:57:03;112.83;;;54.30;;
10045;SDS011;5063;50.878;4.742;2023-05-08T05:59:29;112.23;;;49.53;;
10045;SDS011;5063;50.878;4.742;2023-05-08T06:01:55;108.10;;;51.20;;
10045;SDS011;5063;50.878;4.742;2023-05-08T06:04:21;100.40;;;50.70;;
10045;SDS011;5063;50.878;4.742;2023-05-08T06:06:46;97.50;;;48.43;;
10045;SDS011;5063;50.878;4.742;2023-05-08T06:09:12;91.13;;;48.03;;
10045;SDS011;5063;50.878;4.742;2023-05-08T06:11:38;97.23;;;47.40;;
10045;SDS011;5063;50.878;4.742;2023-05-08T06:14:04;94.53;;;46.30;;
10045;SDS011;5063;50.878;4.742;2023-05-08T06:16:29;92.40;;;46.40;;
10045;SDS011;5063;50.878;4.742;2023-05-08T06:18:56;88.07;;;45.00;;
10045;SDS011;5063;50.878;4.742;2023-05-08T06:21:21;91.80;;;45.53;;
10045;SDS011;5063;50.878;4.742;2023-05-08T06:23:47;90.07;;;45.13;;
10045;SDS011;5063;50.878;4.742;2023-05-08T06:26:13;83.27;;;44.97;;
10045;SDS011;5063;50.878;4.742;2023-05-08T06:28:39;90.73;;;46.50;;
10045;SDS011;5063;50.878;4.742;2023-05-08T06:31:05;88.27;;;44.30;;
10045;SDS011;5063;50.878;4.742;2023-05-08T06:33:30;84.33;;;45.30;;
10045;SDS011;5063;50.878;4.742;2023-05-08T06:35:56;77.10;;;41.23;;
10045;SDS011;5063;50.878;4.742;2023-05-08T06:38:22;76.20;;;41.87;;
10045;SDS011;5063;50.878;4.742;2023-05-08T06:40:48;92.53;;;45.83;;
10045;SDS011;5063;50.878;4.742;2023-05-08T06:43:14;81.30;;;41.93;;
10045;SDS011;5063;50.878;4.742;2023-05-08T06:45:42;73.83;;;40.87;;
10045;SDS011;5063;50.878;4.742;2023-05-08T06:48:09;77.00;;;40.27;;
10045;SDS011;5063;50.878;4.742;2023-05-08T06:50:38;77.43;;;41.13;;
10045;SDS011;5063;50.878;4.742;2023-05-08T06:53:05;87.90;;;43.97;;
10045;SDS011;5063;50.878;4.742;2023-05-08T06:55:31;75.23;;;39.27;;
10045;SDS011;5063;50.878;4.742;2023-05-08T06:57:57;73.77;;;39.40;;
10045;SDS011;5063;50.878;4.742;2023-05-08T07:00:23;75.90;;;40.80;;
10045;SDS011;5063;50.878;4.742;2023-05-08T07:02:49;78.20;;;42.80;;
10045;SDS011;5063;50.878;4.742;2023-05-08T07:05:15;68.97;;;39.67;;
10045;SDS011;5063;50.878;4.742;2023-05-08T07:07:42;67.37;;;38.00;;
10045;SDS011;5063;50.878;4.742;2023-05-08T07:10:08;86.20;;;43.53;;
10045;SDS011;5063;50.878;4.742;2023-05-08T07:12:34;82.67;;;42.37;;
10045;SDS011;5063;50.878;4.742;2023-05-08T07:14:59;83.70;;;43.80;;
10045;SDS011;5063;50.878;4.742;2023-05-08T07:17:25;74.40;;;41.03;;
10045;SDS011;5063;50.878;4.742;2023-05-08T07:19:51;73.43;;;42.00;;
10045;SDS011;5063;50.878;4.742;2023-05-08T07:22:17;77.10;;;42.00;;
10045;SDS011;5063;50.878;4.742;2023-05-08T07:24:42;77.37;;;44.80;;
10045;SDS011;5063;50.878;4.742;2023-05-08T07:27:08;71.87;;;41.20;;
10045;SDS011;5063;50.878;4.742;2023-05-08T07:29:34;86.13;;;43.37;;
10045;SDS011;5063;50.878;4.742;2023-05-08T07:32:00;79.27;;;43.23;;
10045;SDS011;5063;50.878;4.742;2023-05-08T07:34:26;76.23;;;42.90;;
10045;SDS011;5063;50.878;4.742;2023-05-08T07:36:52;70.70;;;41.53;;
10045;SDS011;5063;50.878;4.742;2023-05-08T07:39:18;71.90;;;42.60;;
10045;SDS011;5063;50.878;4.742;2023-05-08T07:41:44;75.90;;;44.23;;
10045;SDS011;5063;50.878;4.742;2023-05-08T07:44:10;78.87;;;44.67;;
10045;SDS011;5063;50.878;4.742;2023-05-08T07:46:36;76.80;;;42.33;;
10045;SDS011;5063;50.878;4.742;2023-05-08T07:49:02;74.03;;;42.03;;
10045;SDS011;5063;50.878;4.742;2023-05-08T07:51:27;71.03;;;43.07;;
10045;SDS011;5063;50.878;4.742;2023-05-08T07:53:53;73.55;;;42.78;;
10045;SDS011;5063;50.878;4.742;2023-05-08T07:56:19;96.57;;;49.20;;
10045;SDS011;5063;50.878;4.742;2023-05-08T07:58:47;70.35;;;40.80;;
10045;SDS011;5063;50.878;4.742;2023-05-08T08:01:12;66.83;;;40.30;;
10045;SDS011;5063;50.878;4.742;2023-05-08T08:03:38;73.30;;;41.90;;
10045;SDS011;5063;50.878;4.742;2023-05-08T08:06:04;62.10;;;37.37;;
10045;SDS011;5063;50.878;4.742;2023-05-08T08:08:30;68.07;;;39.37;;
10045;SDS011;5063;50.878;4.742;2023-05-08T08:10:56;67.70;;;38.47;;
10045;SDS011;5063;50.878;4.742;2023-05-08T08:13:22;59.92;;;36.90;;
10045;SDS011;5063;50.878;4.742;2023-05-08T08:15:47;57.35;;;34.15;;
10045;SDS011;5063;50.878;4.742;2023-05-08T08:18:13;56.67;;;34.70;;
10045;SDS011;5063;50.878;4.742;2023-05-08T08:20:39;57.40;;;36.10;;
10045;SDS011;5063;50.878;4.742;2023-05-08T08:23:04;55.92;;;33.08;;
10045;SDS011;5063;50.878;4.742;2023-05-08T08:25:30;48.47;;;32.03;;
10045;SDS011;5063;50.878;4.742;2023-05-08T08:27:57;53.50;;;31.67;;
10045;SDS011;5063;50.878;4.742;2023-05-08T08:30:22;47.95;;;30.83;;
10045;SDS011;5063;50.878;4.742;2023-05-08T08:32:48;47.45;;;30.08;;
10045;SDS011;5063;50.878;4.742;2023-05-08T08:35:14;49.20;;;31.83;;
10045;SDS011;5063;50.878;4.742;2023-05-08T08:37:40;44.92;;;28.55;;
10045;SDS011;5063;50.878;4.742;2023-05-08T08:40:06;51.95;;;30.88;;
10045;SDS011;5063;50.878;4.742;2023-05-08T08:42:32;47.58;;;30.08;;
10045;SDS011;5063;50.878;4.742;2023-05-08T08:44:59;44.50;;;29.35;;
10045;SDS011;5063;50.878;4.742;2023-05-08T08:47:28;47.80;;;27.98;;
10045;SDS011;5063;50.878;4.742;2023-05-08T08:50:01;46.92;;;29.63;;
10045;SDS011;5063;50.878;4.742;2023-05-08T08:55:06;44.00;;;28.85;;
10045;SDS011;5063;50.878;4.742;2023-05-08T08:57:35;47.70;;;28.80;;
10045;SDS011;5063;50.878;4.742;2023-05-08T09:00:06;44.05;;;26.60;;
10045;SDS011;5063;50.878;4.742;2023-05-08T09:02:35;42.83;;;27.05;;
10045;SDS011;5063;50.878;4.742;2023-05-08T09:05:01;40.70;;;24.52;;
10045;SDS011;5063;50.878;4.742;2023-05-08T09:07:27;40.97;;;26.77;;
10045;SDS011;5063;50.878;4.742;2023-05-08T09:09:54;44.85;;;26.15;;
10045;SDS011;5063;50.878;4.742;2023-05-08T09:12:20;42.42;;;25.70;;
10045;SDS011;5063;50.878;4.742;2023-05-08T09:14:46;40.72;;;26.33;;
10045;SDS011;5063;50.878;4.742;2023-05-08T09:17:12;40.17;;;26.58;;
10045;SDS011;5063;50.878;4.742;2023-05-08T09:19:38;38.63;;;25.83;;
10045;SDS011;5063;50.878;4.742;2023-05-08T09:22:05;38.10;;;23.27;;
10045;SDS011;5063;50.878;4.742;2023-05-08T09:27:20;36.90;;;23.63;;
10045;SDS011;5063;50.878;4.742;2023-05-08T09:30:08;37.53;;;21.98;;
10045;SDS011;5063;50.878;4.742;2023-05-08T09:32:35;36.72;;;22.75;;
10045;SDS011;5063;50.878;4.742;2023-05-08T09:35:02;39.35;;;23.38;;
10045;SDS011;5063;50.878;4.742;2023-05-08T09:37:28;44.53;;;26.17;;
10045;SDS011;5063;50.878;4.742;2023-05-08T09:39:59;48.50;;;27.35;;
10045;SDS011;5063;50.878;4.742;2023-05-08T09:42:47;50.13;;;27.85;;
10045;SDS011;5063;50.878;4.742;2023-05-08T09:47:52;47.83;;;28.60;;
10045;SDS011;5063;50.878;4.742;2023-05-08T09:50:18;46.05;;;26.17;;
10045;SDS011;5063;50.878;4.742;2023-05-08T09:52:45;53.42;;;27.17;;
10045;SDS011;5063;50.878;4.742;2023-05-08T09:55:13;43.63;;;26.70;;
10045;SDS011;5063;50.878;4.742;2023-05-08T09:57:39;47.20;;;26.60;;
10045;SDS011;5063;50.878;4.742;2023-05-08T10:00:15;43.55;;;26.33;;
10045;SDS011;5063;50.878;4.742;2023-05-08T10:02:52;48.78;;;27.00;;
10045;SDS011;5063;50.878;4.742;2023-05-08T10:05:32;44.22;;;25.02;;
10045;SDS011;5063;50.878;4.742;2023-05-08T10:10:50;38.80;;;23.17;;
10045;SDS011;5063;50.878;4.742;2023-05-08T10:13:17;49.58;;;24.08;;
10045;SDS011;5063;50.878;4.742;2023-05-08T10:15:43;40.35;;;24.77;;
10045;SDS011;5063;50.878;4.742;2023-05-08T10:18:09;38.28;;;24.55;;
10045;SDS011;5063;50.878;4.742;2023-05-08T10:20:39;37.75;;;25.48;;
10045;SDS011;5063;50.878;4.742;2023-05-08T10:23:06;39.58;;;24.77;;
10045;SDS011;5063;50.878;4.742;2023-05-08T10:25:35;40.53;;;23.98;;
10045;SDS011;5063;50.878;4.742;2023-05-08T10:30:47;36.95;;;21.92;;
10045;SDS011;5063;50.878;4.742;2023-05-08T10:33:15;31.73;;;19.15;;
10045;SDS011;5063;50.878;4.742;2023-05-08T10:35:44;28.17;;;18.75;;
10045;SDS011;5063;50.878;4.742;2023-05-08T10:38:11;24.63;;;16.90;;
10045;SDS011;5063;50.878;4.742;2023-05-08T10:40:38;28.38;;;17.35;;
10045;SDS011;5063;50.878;4.742;2023-05-08T10:43:06;26.17;;;16.80;;
10045;SDS011;5063;50.878;4.742;2023-05-08T10:45:33;30.27;;;20.00;;
10045;SDS011;5063;50.878;4.742;2023-05-08T10:48:03;26.92;;;18.38;;
10045;SDS011;5063;50.878;4.742;2023-05-08T10:53:17;20.75;;;13.48;;
10045;SDS011;5063;50.878;4.742;2023-05-08T10:55:49;20.63;;;13.15;;
10045;SDS011;5063;50.878;4.742;2023-05-08T11:03:17;19.30;;;13.43;;
10045;SDS011;5063;50.878;4.742;2023-05-08T11:05:50;17.98;;;12.85;;
10045;SDS011;5063;50.878;4.742;2023-05-08T11:08:20;17.80;;;13.65;;
10045;SDS011;5063;50.878;4.742;2023-05-08T11:15:57;20.83;;;13.57;;
10045;SDS011;5063;50.878;4.742;2023-05-08T11:18:23;18.85;;;12.77;;
10045;SDS011;5063;50.878;4.742;2023-05-08T11:20:54;21.60;;;14.15;;
10045;SDS011;5063;50.878;4.742;2023-05-08T11:23:23;17.70;;;12.60;;
10045;SDS011;5063;50.878;4.742;2023-05-08T11:28:38;16.58;;;12.32;;
10045;SDS011;5063;50.878;4.742;2023-05-08T11:31:19;18.08;;;13.90;;
10045;SDS011;5063;50.878;4.742;2023-05-08T11:33:45;17.33;;;13.10;;
10045;SDS011;5063;50.878;4.742;2023-05-08T11:36:14;17.83;;;12.50;;
10045;SDS011;5063;50.878;4.742;2023-05-08T11:39:05;18.58;;;12.82;;
10045;SDS011;5063;50.878;4.742;2023-05-08T11:41:33;19.63;;;12.65;;
10045;SDS011;5063;50.878;4.742;2023-05-08T11:46:43;16.25;;;12.48;;
10045;SDS011;5063;50.878;4.742;2023-05-08T11:49:13;15.30;;;11.20;;
10045;SDS011;5063;50.878;4.742;2023-05-08T11:51:47;15.93;;;11.27;;
10045;SDS011;5063;50.878;4.742;2023-05-08T11:54:15;16.67;;;11.65;;
10045;SDS011;5063;50.878;4.742;2023-05-08T11:56:49;18.02;;;11.30;;
10045;SDS011;5063;50.878;4.742;2023-05-08T11:59:16;16.92;;;11.57;;
10045;SDS011;5063;50.878;4.742;2023-05-08T12:01:43;15.93;;;12.20;;
10045;SDS011;5063;50.878;4.742;2023-05-08T12:04:10;17.42;;;11.20;;
10045;SDS011;5063;50.878;4.742;2023-05-08T12:06:37;16.13;;;11.02;;
10045;SDS011;5063;50.878;4.742;2023-05-08T12:09:11;14.93;;;10.48;;
10045;SDS011;5063;50.878;4.742;2023-05-08T12:11:39;14.75;;;10.55;;
10045;SDS011;5063;50.878;4.742;2023-05-08T12:14:07;17.35;;;11.00;;
10045;SDS011;5063;50.878;4.742;2023-05-08T12:16:34;14.32;;;10.20;;
10045;SDS011;5063;50.878;4.742;2023-05-08T12:19:01;12.38;;;9.25;;
10045;SDS011;5063;50.878;4.742;2023-05-08T12:21:27;13.73;;;9.73;;
10045;SDS011;5063;50.878;4.742;2023-05-08T12:23:53;17.45;;;10.23;;
10045;SDS011;5063;50.878;4.742;2023-05-08T12:26:20;16.27;;;10.15;;
10045;SDS011;5063;50.878;4.742;2023-05-08T12:28:46;13.57;;;10.23;;
10045;SDS011;5063;50.878;4.742;2023-05-08T12:31:19;14.05;;;10.20;;
10045;SDS011;5063;50.878;4.742;2023-05-08T12:33:44;14.20;;;9.70;;
10045;SDS011;5063;50.878;4.742;2023-05-08T12:36:10;14.10;;;9.20;;
10045;SDS011;5063;50.878;4.742;2023-05-08T12:38:37;12.70;;;9.48;;
10045;SDS011;5063;50.878;4.742;2023-05-08T12:41:03;13.52;;;8.82;;
10045;SDS011;5063;50.878;4.742;2023-05-08T12:43:34;15.57;;;11.05;;
10045;SDS011;5063;50.878;4.742;2023-05-08T12:46:01;17.10;;;10.88;;
10045;SDS011;5063;50.878;4.742;2023-05-08T12:48:28;16.67;;;10.35;;
10045;SDS011;5063;50.878;4.742;2023-05-08T12:50:54;17.27;;;11.75;;
10045;SDS011;5063;50.878;4.742;2023-05-08T12:53:28;16.40;;;12.18;;
10045;SDS011;5063;50.878;4.742;2023-05-08T12:55:55;16.67;;;11.60;;
10045;SDS011;5063;50.878;4.742;2023-05-08T12:58:34;17.77;;;11.98;;
10045;SDS011;5063;50.878;4.742;2023-05-08T13:01:07;17.50;;;12.10;;
10045;SDS011;5063;50.878;4.742;2023-05-08T13:03:36;15.32;;;10.57;;
10045;SDS011;5063;50.878;4.742;2023-05-08T13:06:02;15.57;;;11.50;;
10045;SDS011;5063;50.878;4.742;2023-05-08T13:08:31;17.13;;;11.50;;
10045;SDS011;5063;50.878;4.742;2023-05-08T13:10:59;16.17;;;11.35;;
10045;SDS011;5063;50.878;4.742;2023-05-08T13:13:28;16.15;;;10.57;;
10045;SDS011;5063;50.878;4.742;2023-05-08T13:15:56;16.35;;;10.95;;
10045;SDS011;5063;50.878;4.742;2023-05-08T13:18:23;16.40;;;11.10;;
10045;SDS011;5063;50.878;4.742;2023-05-08T13:20:51;15.70;;;10.63;;
10045;SDS011;5063;50.878;4.742;2023-05-08T13:23:18;15.25;;;11.00;;
10045;SDS011;5063;50.878;4.742;2023-05-08T13:25:43;15.85;;;11.93;;
10045;SDS011;5063;50.878;4.742;2023-05-08T13:28:09;17.13;;;12.48;;
10045;SDS011;5063;50.878;4.742;2023-05-08T13:30:35;17.65;;;13.13;;
10045;SDS011;5063;50.878;4.742;2023-05-08T13:33:02;21.27;;;13.95;;
10045;SDS011;5063;50.878;4.742;2023-05-08T13:35:28;13.57;;;9.90;;
10045;SDS011;5063;50.878;4.742;2023-05-08T13:37:55;14.43;;;9.30;;
10045;SDS011;5063;50.878;4.742;2023-05-08T13:40:21;15.13;;;10.68;;
10045;SDS011;5063;50.878;4.742;2023-05-08T13:42:47;14.50;;;10.52;;
10045;SDS011;5063;50.878;4.742;2023-05-08T13:45:13;15.30;;;9.88;;
10045;SDS011;5063;50.878;4.742;2023-05-08T13:47:42;15.90;;;10.93;;
10045;SDS011;5063;50.878;4.742;2023-05-08T13:50:09;16.08;;;10.95;;
10045;SDS011;5063;50.878;4.742;2023-05-08T13:52:36;15.07;;;10.45;;
10045;SDS011;5063;50.878;4.742;2023-05-08T13:55:06;15.68;;;10.82;;
10045;SDS011;5063;50.878;4.742;2023-05-08T13:57:33;16.40;;;10.85;;
10045;SDS011;5063;50.878;4.742;2023-05-08T13:59:59;14.82;;;10.95;;
10045;SDS011;5063;50.878;4.742;2023-05-08T14:02:25;15.93;;;10.80;;
10045;SDS011;5063;50.878;4.742;2023-05-08T14:04:51;14.55;;;10.00;;
10045;SDS011;5063;50.878;4.742;2023-05-08T14:07:17;15.68;;;10.63;;
10045;SDS011;5063;50.878;4.742;2023-05-08T14:09:44;16.88;;;11.10;;
10045;SDS011;5063;50.878;4.742;2023-05-08T14:12:10;15.20;;;11.07;;
10045;SDS011;5063;50.878;4.742;2023-05-08T14:14:36;15.10;;;10.48;;
10045;SDS011;5063;50.878;4.742;2023-05-08T14:17:05;17.70;;;11.43;;
10045;SDS011;5063;50.878;4.742;2023-05-08T14:19:31;18.40;;;11.43;;
10045;SDS011;5063;50.878;4.742;2023-05-08T14:21:57;17.77;;;11.98;;
10045;SDS011;5063;50.878;4.742;2023-05-08T14:24:23;19.75;;;12.52;;
10045;SDS011;5063;50.878;4.742;2023-05-08T14:26:49;21.23;;;13.27;;
10045;SDS011;5063;50.878;4.742;2023-05-08T14:29:15;19.40;;;13.27;;
10045;SDS011;5063;50.878;4.742;2023-05-08T14:31:42;18.40;;;13.63;;
10045;SDS011;5063;50.878;4.742;2023-05-08T14:34:09;20.60;;;13.50;;
10045;SDS011;5063;50.878;4.742;2023-05-08T14:36:34;23.65;;;14.25;;
10045;SDS011;5063;50.878;4.742;2023-05-08T14:39:00;24.00;;;13.55;;
10045;SDS011;5063;50.878;4.742;2023-05-08T14:41:27;18.02;;;13.38;;
10045;SDS011;5063;50.878;4.742;2023-05-08T14:43:53;20.95;;;14.85;;
10045;SDS011;5063;50.878;4.742;2023-05-08T14:46:19;22.90;;;15.25;;
10045;SDS011;5063;50.878;4.742;2023-05-08T14:48:45;25.98;;;15.65;;
10045;SDS011;5063;50.878;4.742;2023-05-08T14:51:11;20.40;;;15.13;;
10045;SDS011;5063;50.878;4.742;2023-05-08T14:53:38;21.15;;;14.20;;
10045;SDS011;5063;50.878;4.742;2023-05-08T14:56:04;20.58;;;14.27;;
10045;SDS011;5063;50.878;4.742;2023-05-08T14:58:31;25.88;;;14.82;;
10045;SDS011;5063;50.878;4.742;2023-05-08T15:00:57;22.42;;;16.17;;
10045;SDS011;5063;50.878;4.742;2023-05-08T15:03:22;21.25;;;14.90;;
10045;SDS011;5063;50.878;4.742;2023-05-08T15:05:48;22.23;;;15.23;;
10045;SDS011;5063;50.878;4.742;2023-05-08T15:08:14;22.05;;;15.20;;
10045;SDS011;5063;50.878;4.742;2023-05-08T15:10:40;25.30;;;15.40;;
10045;SDS011;5063;50.878;4.742;2023-05-08T15:13:06;27.55;;;15.85;;
10045;SDS011;5063;50.878;4.742;2023-05-08T15:15:32;21.30;;;14.65;;
10045;SDS011;5063;50.878;4.742;2023-05-08T15:17:58;22.30;;;15.13;;
10045;SDS011;5063;50.878;4.742;2023-05-08T15:20:23;28.05;;;16.73;;
10045;SDS011;5063;50.878;4.742;2023-05-08T15:22:49;23.40;;;16.55;;
10045;SDS011;5063;50.878;4.742;2023-05-08T15:25:15;24.77;;;15.45;;
10045;SDS011;5063;50.878;4.742;2023-05-08T15:27:41;25.15;;;15.43;;
10045;SDS011;5063;50.878;4.742;2023-05-08T15:30:07;24.23;;;16.42;;
10045;SDS011;5063;50.878;4.742;2023-05-08T15:32:33;23.15;;;14.68;;
10045;SDS011;5063;50.878;4.742;2023-05-08T15:34:59;25.08;;;16.60;;
10045;SDS011;5063;50.878;4.742;2023-05-08T15:37:25;22.17;;;16.02;;
10045;SDS011;5063;50.878;4.742;2023-05-08T15:39:51;25.20;;;16.75;;
10045;SDS011;5063;50.878;4.742;2023-05-08T15:42:17;22.35;;;16.45;;